sensor_id;sensor_type;location;lat;lon;timestamp;P1;durP1;ratioP1;P2;durP2;ratioP2
21206;SDS011;10761;48.532;8.026;2023-06-05T00:01:42;5.57;;;2.22;;
21206;SDS011;10761;48.532;8.026;2023-06-05T00:04:08;4.15;;;2.22;;
21206;SDS011;10761;48.532;8.026;2023-06-05T00:06:34;4.68;;;2.30;;
21206;SDS011;10761;48.532;8.026;2023-06-05T00:09:02;5.70;;;2.38;;
21206;SDS011;10761;48.532;8.026;2023-06-05T00:11:28;7.13;;;2.20;;
21206;SDS011;10761;48.532;8.026;2023-06-05T00:13:54;2.60;;;2.40;;
21206;SDS011;10761;48.532;8.026;2023-06-05T00:16:19;6.53;;;2.63;;
21206;SDS011;10761;48.532;8.026;2023-06-05T00:18:45;4.90;;;2.40;;
21206;SDS011;10761;48.532;8.026;2023-06-05T00:21:12;4.28;;;2.10;;
21206;SDS011;10761;48.532;8.026;2023-06-05T00:23:38;5.22;;;2.13;;
21206;SDS011;10761;48.532;8.026;2023-06-05T00:26:03;4.30;;;2.42;;
21206;SDS011;10761;48.532;8.026;2023-06-05T00:28:29;3.75;;;2.50;;
21206;SDS011;10761;48.532;8.026;2023-06-05T00:30:54;5.40;;;2.65;;
21206;SDS011;10761;48.532;8.026;2023-06-05T00:33:20;4.78;;;2.50;;
21206;SDS011;10761;48.532;8.026;2023-06-05T00:35:46;4.00;;;2.30;;
21206;SDS011;10761;48.532;8.026;2023-06-05T00:38:11;3.20;;;2.13;;
21206;SDS011;10761;48.532;8.026;2023-06-05T00:40:37;9.18;;;2.40;;
21206;SDS011;10761;48.532;8.026;2023-06-05T00:43:02;3.95;;;2.25;;
21206;SDS011;10761;48.532;8.026;2023-06-05T00:45:30;3.25;;;2.33;;
21206;SDS011;10761;48.532;8.026;2023-06-05T00:47:56;3.50;;;2.30;;
21206;SDS011;10761;48.532;8.026;2023-06-05T00:50:22;3.78;;;2.30;;
21206;SDS011;10761;48.532;8.026;2023-06-05T00:52:48;4.68;;;2.67;;
21206;SDS011;10761;48.532;8.026;2023-06-05T00:55:14;5.95;;;2.28;;
21206;SDS011;10761;48.532;8.026;2023-06-05T00:57:40;5.10;;;2.30;;
21206;SDS011;10761;48.532;8.026;2023-06-05T01:00:07;5.97;;;2.45;;
21206;SDS011;10761;48.532;8.026;2023-06-05T01:02:33;3.63;;;2.15;;
21206;SDS011;10761;48.532;8.026;2023-06-05T01:05:02;6.43;;;2.42;;
21206;SDS011;10761;48.532;8.026;2023-06-05T01:07:29;3.03;;;2.72;;
21206;SDS011;10761;48.532;8.026;2023-06-05T01:09:58;2.40;;;2.20;;
21206;SDS011;10761;48.532;8.026;2023-06-05T01:15:08;2.97;;;2.60;;
21206;SDS011;10761;48.532;8.026;2023-06-05T01:17:34;9.95;;;2.63;;
21206;SDS011;10761;48.532;8.026;2023-06-05T01:20:00;3.60;;;2.58;;
21206;SDS011;10761;48.532;8.026;2023-06-05T01:22:28;2.88;;;2.28;;
21206;SDS011;10761;48.532;8.026;2023-06-05T01:24:54;3.72;;;2.35;;
21206;SDS011;10761;48.532;8.026;2023-06-05T01:27:29;2.88;;;2.33;;
21206;SDS011;10761;48.532;8.026;2023-06-05T01:30:06;4.50;;;2.25;;
21206;SDS011;10761;48.532;8.026;2023-06-05T01:35:28;3.70;;;2.25;;
21206;SDS011;10761;48.532;8.026;2023-06-05T01:37:58;5.93;;;2.30;;
21206;SDS011;10761;48.532;8.026;2023-06-05T01:40:24;4.07;;;2.28;;
21206;SDS011;10761;48.532;8.026;2023-06-05T01:42:50;5.88;;;2.22;;
21206;SDS011;10761;48.532;8.026;2023-06-05T01:45:18;4.07;;;2.50;;
21206;SDS011;10761;48.532;8.026;2023-06-05T01:47:44;3.47;;;2.10;;
21206;SDS011;10761;48.532;8.026;2023-06-05T01:50:15;2.83;;;2.28;;
21206;SDS011;10761;48.532;8.026;2023-06-05T01:52:41;3.70;;;2.63;;
21206;SDS011;10761;48.532;8.026;2023-06-05T01:55:13;6.22;;;2.40;;
21206;SDS011;10761;48.532;8.026;2023-06-05T01:57:41;2.80;;;2.45;;
21206;SDS011;10761;48.532;8.026;2023-06-05T02:00:08;3.00;;;2.13;;
21206;SDS011;10761;48.532;8.026;2023-06-05T02:02:38;5.20;;;2.47;;
21206;SDS011;10761;48.532;8.026;2023-06-05T02:05:06;4.28;;;2.35;;
21206;SDS011;10761;48.532;8.026;2023-06-05T02:07:33;3.00;;;2.20;;
21206;SDS011;10761;48.532;8.026;2023-06-05T02:10:03;5.10;;;2.35;;
21206;SDS011;10761;48.532;8.026;2023-06-05T02:12:30;4.97;;;2.47;;
21206;SDS011;10761;48.532;8.026;2023-06-05T02:14:57;6.13;;;2.13;;
21206;SDS011;10761;48.532;8.026;2023-06-05T02:17:24;2.90;;;2.30;;
21206;SDS011;10761;48.532;8.026;2023-06-05T02:19:50;4.10;;;2.47;;
21206;SDS011;10761;48.532;8.026;2023-06-05T02:22:16;4.22;;;2.10;;
21206;SDS011;10761;48.532;8.026;2023-06-05T02:24:42;4.15;;;2.70;;
21206;SDS011;10761;48.532;8.026;2023-06-05T02:27:08;2.53;;;2.30;;
21206;SDS011;10761;48.532;8.026;2023-06-05T02:29:35;4.32;;;2.83;;
21206;SDS011;10761;48.532;8.026;2023-06-05T02:32:04;4.57;;;2.97;;
21206;SDS011;10761;48.532;8.026;2023-06-05T02:34:31;5.43;;;2.58;;
21206;SDS011;10761;48.532;8.026;2023-06-05T02:36:57;3.20;;;2.30;;
21206;SDS011;10761;48.532;8.026;2023-06-05T02:39:27;2.72;;;2.33;;
21206;SDS011;10761;48.532;8.026;2023-06-05T02:41:53;3.25;;;2.45;;
21206;SDS011;10761;48.532;8.026;2023-06-05T02:44:21;2.75;;;2.33;;
21206;SDS011;10761;48.532;8.026;2023-06-05T02:46:46;5.50;;;2.60;;
21206;SDS011;10761;48.532;8.026;2023-06-05T02:49:12;4.85;;;2.85;;
21206;SDS011;10761;48.532;8.026;2023-06-05T02:51:37;6.45;;;2.50;;
21206;SDS011;10761;48.532;8.026;2023-06-05T02:54:03;3.38;;;2.58;;
21206;SDS011;10761;48.532;8.026;2023-06-05T02:56:29;5.13;;;2.83;;
21206;SDS011;10761;48.532;8.026;2023-06-05T02:58:54;3.38;;;2.72;;
21206;SDS011;10761;48.532;8.026;2023-06-05T03:01:21;5.18;;;2.67;;
21206;SDS011;10761;48.532;8.026;2023-06-05T03:03:47;6.00;;;2.15;;
21206;SDS011;10761;48.532;8.026;2023-06-05T03:06:13;4.30;;;2.80;;
21206;SDS011;10761;48.532;8.026;2023-06-05T03:08:42;3.58;;;2.70;;
21206;SDS011;10761;48.532;8.026;2023-06-05T03:11:08;3.70;;;2.67;;
21206;SDS011;10761;48.532;8.026;2023-06-05T03:13:33;3.58;;;2.60;;
21206;SDS011;10761;48.532;8.026;2023-06-05T03:15:59;3.88;;;2.13;;
21206;SDS011;10761;48.532;8.026;2023-06-05T03:18:28;4.78;;;2.65;;
21206;SDS011;10761;48.532;8.026;2023-06-05T03:20:54;6.88;;;2.70;;
21206;SDS011;10761;48.532;8.026;2023-06-05T03:23:27;3.13;;;2.47;;
21206;SDS011;10761;48.532;8.026;2023-06-05T03:25:53;2.97;;;2.47;;
21206;SDS011;10761;48.532;8.026;2023-06-05T03:28:20;3.75;;;2.60;;
21206;SDS011;10761;48.532;8.026;2023-06-05T03:30:47;5.93;;;2.88;;
21206;SDS011;10761;48.532;8.026;2023-06-05T03:33:13;3.17;;;2.40;;
21206;SDS011;10761;48.532;8.026;2023-06-05T03:35:40;3.72;;;2.80;;
21206;SDS011;10761;48.532;8.026;2023-06-05T03:38:11;5.03;;;2.78;;
21206;SDS011;10761;48.532;8.026;2023-06-05T03:40:37;4.00;;;2.65;;
21206;SDS011;10761;48.532;8.026;2023-06-05T03:43:05;4.10;;;2.70;;
21206;SDS011;10761;48.532;8.026;2023-06-05T03:45:32;5.45;;;2.60;;
21206;SDS011;10761;48.532;8.026;2023-06-05T03:48:01;7.13;;;2.80;;
21206;SDS011;10761;48.532;8.026;2023-06-05T03:50:27;5.63;;;2.65;;
21206;SDS011;10761;48.532;8.026;2023-06-05T03:52:57;2.58;;;2.38;;
21206;SDS011;10761;48.532;8.026;2023-06-05T03:55:33;4.78;;;2.75;;
21206;SDS011;10761;48.532;8.026;2023-06-05T03:58:14;3.92;;;2.80;;
21206;SDS011;10761;48.532;8.026;2023-06-05T04:00:47;4.65;;;2.60;;
21206;SDS011;10761;48.532;8.026;2023-06-05T04:03:14;4.07;;;2.97;;
21206;SDS011;10761;48.532;8.026;2023-06-05T04:05:40;4.30;;;2.78;;
21206;SDS011;10761;48.532;8.026;2023-06-05T04:08:06;4.75;;;2.60;;
21206;SDS011;10761;48.532;8.026;2023-06-05T04:10:34;4.57;;;3.28;;
21206;SDS011;10761;48.532;8.026;2023-06-05T04:13:00;4.28;;;2.70;;
21206;SDS011;10761;48.532;8.026;2023-06-05T04:15:25;4.20;;;2.88;;
21206;SDS011;10761;48.532;8.026;2023-06-05T04:17:52;2.90;;;2.50;;
21206;SDS011;10761;48.532;8.026;2023-06-05T04:20:18;5.28;;;2.60;;
21206;SDS011;10761;48.532;8.026;2023-06-05T04:22:44;7.55;;;2.95;;
21206;SDS011;10761;48.532;8.026;2023-06-05T04:25:12;3.65;;;2.75;;
21206;SDS011;10761;48.532;8.026;2023-06-05T04:27:39;4.68;;;3.10;;
21206;SDS011;10761;48.532;8.026;2023-06-05T04:30:06;6.30;;;2.83;;
21206;SDS011;10761;48.532;8.026;2023-06-05T04:32:33;3.78;;;2.70;;
21206;SDS011;10761;48.532;8.026;2023-06-05T04:35:02;5.47;;;2.63;;
21206;SDS011;10761;48.532;8.026;2023-06-05T04:37:33;6.47;;;3.30;;
21206;SDS011;10761;48.532;8.026;2023-06-05T04:40:00;4.38;;;2.80;;
21206;SDS011;10761;48.532;8.026;2023-06-05T04:42:30;4.38;;;3.10;;
21206;SDS011;10761;48.532;8.026;2023-06-05T04:44:57;3.72;;;2.92;;
21206;SDS011;10761;48.532;8.026;2023-06-05T04:47:24;5.13;;;3.10;;
21206;SDS011;10761;48.532;8.026;2023-06-05T04:49:49;4.30;;;2.90;;
21206;SDS011;10761;48.532;8.026;2023-06-05T04:52:17;5.15;;;2.80;;
21206;SDS011;10761;48.532;8.026;2023-06-05T04:54:45;5.53;;;3.42;;
21206;SDS011;10761;48.532;8.026;2023-06-05T04:57:11;3.90;;;2.88;;
21206;SDS011;10761;48.532;8.026;2023-06-05T04:59:37;5.38;;;3.50;;
21206;SDS011;10761;48.532;8.026;2023-06-05T05:02:03;5.53;;;3.70;;
21206;SDS011;10761;48.532;8.026;2023-06-05T05:04:28;6.47;;;3.50;;
21206;SDS011;10761;48.532;8.026;2023-06-05T05:06:55;6.80;;;3.55;;
21206;SDS011;10761;48.532;8.026;2023-06-05T05:09:26;5.65;;;3.67;;
21206;SDS011;10761;48.532;8.026;2023-06-05T05:11:52;5.03;;;3.60;;
21206;SDS011;10761;48.532;8.026;2023-06-05T05:14:17;5.82;;;3.88;;
21206;SDS011;10761;48.532;8.026;2023-06-05T05:16:43;6.40;;;4.07;;
21206;SDS011;10761;48.532;8.026;2023-06-05T05:19:09;5.97;;;3.88;;
21206;SDS011;10761;48.532;8.026;2023-06-05T05:21:34;5.45;;;4.03;;
21206;SDS011;10761;48.532;8.026;2023-06-05T05:24:01;7.82;;;4.10;;
21206;SDS011;10761;48.532;8.026;2023-06-05T05:26:27;5.07;;;4.03;;
21206;SDS011;10761;48.532;8.026;2023-06-05T05:28:52;5.68;;;4.10;;
21206;SDS011;10761;48.532;8.026;2023-06-05T05:31:18;5.90;;;3.85;;
21206;SDS011;10761;48.532;8.026;2023-06-05T05:33:43;6.72;;;4.10;;
21206;SDS011;10761;48.532;8.026;2023-06-05T05:36:09;9.63;;;3.78;;
21206;SDS011;10761;48.532;8.026;2023-06-05T05:38:35;5.03;;;3.67;;
21206;SDS011;10761;48.532;8.026;2023-06-05T05:41:00;10.73;;;4.15;;
21206;SDS011;10761;48.532;8.026;2023-06-05T05:43:26;7.63;;;3.92;;
21206;SDS011;10761;48.532;8.026;2023-06-05T05:45:52;13.55;;;4.00;;
21206;SDS011;10761;48.532;8.026;2023-06-05T05:48:17;5.60;;;4.20;;
21206;SDS011;10761;48.532;8.026;2023-06-05T05:50:43;11.63;;;3.85;;
21206;SDS011;10761;48.532;8.026;2023-06-05T05:53:08;6.97;;;3.88;;
21206;SDS011;10761;48.532;8.026;2023-06-05T05:55:34;6.57;;;3.70;;
21206;SDS011;10761;48.532;8.026;2023-06-05T05:58:01;5.40;;;3.83;;
21206;SDS011;10761;48.532;8.026;2023-06-05T06:00:26;5.63;;;3.75;;
21206;SDS011;10761;48.532;8.026;2023-06-05T06:02:53;8.52;;;3.75;;
21206;SDS011;10761;48.532;8.026;2023-06-05T06:05:19;7.70;;;3.55;;
21206;SDS011;10761;48.532;8.026;2023-06-05T06:07:45;5.97;;;4.22;;
21206;SDS011;10761;48.532;8.026;2023-06-05T06:10:11;8.48;;;4.10;;
21206;SDS011;10761;48.532;8.026;2023-06-05T06:12:37;5.97;;;3.38;;
21206;SDS011;10761;48.532;8.026;2023-06-05T06:15:04;7.57;;;3.33;;
21206;SDS011;10761;48.532;8.026;2023-06-05T06:17:30;3.85;;;3.35;;
21206;SDS011;10761;48.532;8.026;2023-06-05T06:19:56;7.10;;;3.45;;
21206;SDS011;10761;48.532;8.026;2023-06-05T06:22:22;6.75;;;3.95;;
21206;SDS011;10761;48.532;8.026;2023-06-05T06:24:47;10.43;;;3.67;;
21206;SDS011;10761;48.532;8.026;2023-06-05T06:27:15;6.03;;;3.80;;
21206;SDS011;10761;48.532;8.026;2023-06-05T06:29:48;7.65;;;3.40;;
21206;SDS011;10761;48.532;8.026;2023-06-05T06:32:17;6.35;;;3.72;;
21206;SDS011;10761;48.532;8.026;2023-06-05T06:34:43;5.68;;;3.40;;
21206;SDS011;10761;48.532;8.026;2023-06-05T06:37:09;6.53;;;3.50;;
21206;SDS011;10761;48.532;8.026;2023-06-05T06:39:37;5.55;;;3.40;;
21206;SDS011;10761;48.532;8.026;2023-06-05T06:42:03;8.80;;;3.83;;
21206;SDS011;10761;48.532;8.026;2023-06-05T06:44:29;7.25;;;4.00;;
21206;SDS011;10761;48.532;8.026;2023-06-05T06:46:54;7.28;;;3.60;;
21206;SDS011;10761;48.532;8.026;2023-06-05T06:49:20;5.90;;;3.50;;
21206;SDS011;10761;48.532;8.026;2023-06-05T06:51:46;6.68;;;3.72;;
21206;SDS011;10761;48.532;8.026;2023-06-05T06:54:11;4.22;;;3.10;;
21206;SDS011;10761;48.532;8.026;2023-06-05T06:56:37;11.23;;;3.15;;
21206;SDS011;10761;48.532;8.026;2023-06-05T06:59:10;5.95;;;3.20;;
21206;SDS011;10761;48.532;8.026;2023-06-05T07:01:42;7.70;;;3.40;;
21206;SDS011;10761;48.532;8.026;2023-06-05T07:04:12;8.57;;;3.30;;
21206;SDS011;10761;48.532;8.026;2023-06-05T07:06:48;5.15;;;3.40;;
21206;SDS011;10761;48.532;8.026;2023-06-05T07:09:14;6.35;;;3.60;;
21206;SDS011;10761;48.532;8.026;2023-06-05T07:11:40;5.15;;;3.38;;
21206;SDS011;10761;48.532;8.026;2023-06-05T07:14:06;7.40;;;3.70;;
21206;SDS011;10761;48.532;8.026;2023-06-05T07:16:32;6.65;;;3.22;;
21206;SDS011;10761;48.532;8.026;2023-06-05T07:18:58;8.18;;;3.67;;
21206;SDS011;10761;48.532;8.026;2023-06-05T07:21:24;8.48;;;3.47;;
21206;SDS011;10761;48.532;8.026;2023-06-05T07:23:50;12.57;;;3.97;;
21206;SDS011;10761;48.532;8.026;2023-06-05T07:26:17;3.60;;;3.25;;
21206;SDS011;10761;48.532;8.026;2023-06-05T07:28:42;6.50;;;3.08;;
21206;SDS011;10761;48.532;8.026;2023-06-05T07:31:08;5.25;;;3.35;;
21206;SDS011;10761;48.532;8.026;2023-06-05T07:33:35;6.68;;;2.95;;
21206;SDS011;10761;48.532;8.026;2023-06-05T07:36:01;5.53;;;2.92;;
21206;SDS011;10761;48.532;8.026;2023-06-05T07:38:27;5.15;;;3.33;;
21206;SDS011;10761;48.532;8.026;2023-06-05T07:40:52;7.07;;;3.03;;
21206;SDS011;10761;48.532;8.026;2023-06-05T07:43:18;7.30;;;3.28;;
21206;SDS011;10761;48.532;8.026;2023-06-05T07:45:44;7.45;;;3.17;;
21206;SDS011;10761;48.532;8.026;2023-06-05T07:48:09;8.60;;;2.85;;
21206;SDS011;10761;48.532;8.026;2023-06-05T07:50:35;4.43;;;2.63;;
21206;SDS011;10761;48.532;8.026;2023-06-05T07:53:01;5.90;;;2.63;;
21206;SDS011;10761;48.532;8.026;2023-06-05T07:55:27;7.63;;;3.00;;
21206;SDS011;10761;48.532;8.026;2023-06-05T07:57:53;7.60;;;3.00;;
21206;SDS011;10761;48.532;8.026;2023-06-05T08:00:20;7.00;;;3.30;;
21206;SDS011;10761;48.532;8.026;2023-06-05T08:02:45;11.82;;;3.20;;
21206;SDS011;10761;48.532;8.026;2023-06-05T08:05:15;4.00;;;2.70;;
21206;SDS011;10761;48.532;8.026;2023-06-05T08:07:41;3.65;;;2.50;;
21206;SDS011;10761;48.532;8.026;2023-06-05T08:10:07;7.25;;;2.47;;
21206;SDS011;10761;48.532;8.026;2023-06-05T08:12:33;6.80;;;2.70;;
21206;SDS011;10761;48.532;8.026;2023-06-05T08:14:59;6.57;;;2.78;;
21206;SDS011;10761;48.532;8.026;2023-06-05T08:17:25;4.95;;;2.83;;
21206;SDS011;10761;48.532;8.026;2023-06-05T08:19:52;5.68;;;2.50;;
21206;SDS011;10761;48.532;8.026;2023-06-05T08:22:18;4.55;;;2.50;;
21206;SDS011;10761;48.532;8.026;2023-06-05T08:24:43;6.07;;;2.72;;
21206;SDS011;10761;48.532;8.026;2023-06-05T08:27:09;7.82;;;2.38;;
21206;SDS011;10761;48.532;8.026;2023-06-05T08:29:35;4.95;;;2.50;;
21206;SDS011;10761;48.532;8.026;2023-06-05T08:32:02;5.05;;;2.60;;
21206;SDS011;10761;48.532;8.026;2023-06-05T08:34:29;2.58;;;2.38;;
21206;SDS011;10761;48.532;8.026;2023-06-05T08:36:56;5.13;;;2.50;;
21206;SDS011;10761;48.532;8.026;2023-06-05T08:39:23;7.18;;;2.70;;
21206;SDS011;10761;48.532;8.026;2023-06-05T08:41:56;6.72;;;2.53;;
21206;SDS011;10761;48.532;8.026;2023-06-05T08:44:26;5.10;;;2.28;;
21206;SDS011;10761;48.532;8.026;2023-06-05T08:46:54;4.47;;;2.78;;
21206;SDS011;10761;48.532;8.026;2023-06-05T08:49:27;5.70;;;2.90;;
21206;SDS011;10761;48.532;8.026;2023-06-05T08:51:56;9.55;;;2.70;;
21206;SDS011;10761;48.532;8.026;2023-06-05T08:54:25;3.85;;;2.75;;
21206;SDS011;10761;48.532;8.026;2023-06-05T08:56:51;5.93;;;2.83;;
21206;SDS011;10761;48.532;8.026;2023-06-05T08:59:18;6.00;;;2.80;;
21206;SDS011;10761;48.532;8.026;2023-06-05T09:01:48;4.18;;;2.53;;
21206;SDS011;10761;48.532;8.026;2023-06-05T09:04:14;6.57;;;2.90;;
21206;SDS011;10761;48.532;8.026;2023-06-05T09:06:44;7.10;;;2.58;;
21206;SDS011;10761;48.532;8.026;2023-06-05T09:09:16;8.10;;;2.88;;
21206;SDS011;10761;48.532;8.026;2023-06-05T09:11:41;6.22;;;2.70;;
21206;SDS011;10761;48.532;8.026;2023-06-05T09:14:07;9.45;;;2.40;;
21206;SDS011;10761;48.532;8.026;2023-06-05T09:19:07;5.78;;;2.60;;
21206;SDS011;10761;48.532;8.026;2023-06-05T09:21:33;8.10;;;2.50;;
21206;SDS011;10761;48.532;8.026;2023-06-05T09:26:53;6.60;;;3.03;;
21206;SDS011;10761;48.532;8.026;2023-06-05T09:29:24;9.48;;;2.55;;
21206;SDS011;10761;48.532;8.026;2023-06-05T09:31:52;6.97;;;2.67;;
21206;SDS011;10761;48.532;8.026;2023-06-05T09:34:39;5.45;;;2.80;;
21206;SDS011;10761;48.532;8.026;2023-06-05T09:37:06;4.55;;;2.80;;
21206;SDS011;10761;48.532;8.026;2023-06-05T09:39:34;7.25;;;2.55;;
21206;SDS011;10761;48.532;8.026;2023-06-05T09:42:00;5.72;;;2.70;;
21206;SDS011;10761;48.532;8.026;2023-06-05T09:44:27;8.18;;;2.50;;
21206;SDS011;10761;48.532;8.026;2023-06-05T09:49:21;8.15;;;2.70;;
21206;SDS011;10761;48.532;8.026;2023-06-05T09:51:49;6.40;;;2.60;;
21206;SDS011;10761;48.532;8.026;2023-06-05T09:54:15;6.00;;;2.83;;
21206;SDS011;10761;48.532;8.026;2023-06-05T09:56:48;6.43;;;2.83;;
21206;SDS011;10761;48.532;8.026;2023-06-05T09:59:16;6.35;;;2.65;;
21206;SDS011;10761;48.532;8.026;2023-06-05T10:01:50;2.65;;;2.25;;
21206;SDS011;10761;48.532;8.026;2023-06-05T10:04:21;5.18;;;2.20;;
21206;SDS011;10761;48.532;8.026;2023-06-05T10:06:50;7.18;;;2.50;;
21206;SDS011;10761;48.532;8.026;2023-06-05T10:09:17;6.30;;;2.58;;
21206;SDS011;10761;48.532;8.026;2023-06-05T10:11:43;7.75;;;2.53;;
21206;SDS011;10761;48.532;8.026;2023-06-05T10:14:14;3.03;;;2.40;;
21206;SDS011;10761;48.532;8.026;2023-06-05T10:16:40;5.70;;;2.80;;
21206;SDS011;10761;48.532;8.026;2023-06-05T10:19:07;6.47;;;2.50;;
21206;SDS011;10761;48.532;8.026;2023-06-05T10:21:34;8.48;;;2.53;;
21206;SDS011;10761;48.532;8.026;2023-06-05T10:24:08;8.77;;;3.03;;
21206;SDS011;10761;48.532;8.026;2023-06-05T10:29:33;5.38;;;2.40;;
21206;SDS011;10761;48.532;8.026;2023-06-05T10:35:43;9.23;;;2.53;;
21206;SDS011;10761;48.532;8.026;2023-06-05T10:40:41;3.67;;;2.20;;
21206;SDS011;10761;48.532;8.026;2023-06-05T10:43:23;8.50;;;2.90;;
21206;SDS011;10761;48.532;8.026;2023-06-05T10:49:10;9.95;;;2.80;;
21206;SDS011;10761;48.532;8.026;2023-06-05T10:54:07;4.07;;;2.70;;
21206;SDS011;10761;48.532;8.026;2023-06-05T10:56:53;4.47;;;2.70;;
21206;SDS011;10761;48.532;8.026;2023-06-05T10:59:21;9.00;;;2.60;;
21206;SDS011;10761;48.532;8.026;2023-06-05T11:07:19;6.05;;;2.83;;
21206;SDS011;10761;48.532;8.026;2023-06-05T11:12:28;5.47;;;2.65;;
21206;SDS011;10761;48.532;8.026;2023-06-05T11:15:15;4.57;;;2.58;;
21206;SDS011;10761;48.532;8.026;2023-06-05T11:18:25;6.38;;;2.92;;
21206;SDS011;10761;48.532;8.026;2023-06-05T11:20:55;10.90;;;3.15;;
21206;SDS011;10761;48.532;8.026;2023-06-05T11:23:21;6.70;;;3.17;;
21206;SDS011;10761;48.532;8.026;2023-06-05T11:25:52;3.87;;;2.57;;
21206;SDS011;10761;48.532;8.026;2023-06-05T11:28:36;10.57;;;2.70;;
21206;SDS011;10761;48.532;8.026;2023-06-05T11:31:08;8.27;;;2.95;;
21206;SDS011;10761;48.532;8.026;2023-06-05T11:33:35;4.13;;;3.00;;
21206;SDS011;10761;48.532;8.026;2023-06-05T11:36:01;5.68;;;3.10;;
21206;SDS011;10761;48.532;8.026;2023-06-05T11:38:29;4.43;;;2.88;;
21206;SDS011;10761;48.532;8.026;2023-06-05T11:40:55;8.27;;;3.42;;
21206;SDS011;10761;48.532;8.026;2023-06-05T11:43:20;9.05;;;3.75;;
21206;SDS011;10761;48.532;8.026;2023-06-05T11:48:18;3.28;;;2.97;;
21206;SDS011;10761;48.532;8.026;2023-06-05T11:51:05;6.93;;;3.20;;
21206;SDS011;10761;48.532;8.026;2023-06-05T11:53:33;8.20;;;3.17;;
21206;SDS011;10761;48.532;8.026;2023-06-05T11:56:02;6.45;;;3.50;;
21206;SDS011;10761;48.532;8.026;2023-06-05T11:58:40;8.38;;;3.35;;
21206;SDS011;10761;48.532;8.026;2023-06-05T12:01:13;4.82;;;3.38;;
21206;SDS011;10761;48.532;8.026;2023-06-05T12:03:43;7.15;;;3.00;;
21206;SDS011;10761;48.532;8.026;2023-06-05T12:06:10;7.65;;;3.40;;
21206;SDS011;10761;48.532;8.026;2023-06-05T12:08:39;4.60;;;2.97;;
21206;SDS011;10761;48.532;8.026;2023-06-05T12:11:27;7.25;;;3.10;;
21206;SDS011;10761;48.532;8.026;2023-06-05T12:13:52;8.90;;;3.30;;
21206;SDS011;10761;48.532;8.026;2023-06-05T12:16:35;4.55;;;3.42;;
21206;SDS011;10761;48.532;8.026;2023-06-05T12:19:02;5.40;;;3.17;;
21206;SDS011;10761;48.532;8.026;2023-06-05T12:21:38;4.28;;;3.22;;
21206;SDS011;10761;48.532;8.026;2023-06-05T12:24:05;5.40;;;3.33;;
21206;SDS011;10761;48.532;8.026;2023-06-05T12:26:50;9.60;;;3.58;;
21206;SDS011;10761;48.532;8.026;2023-06-05T12:29:20;9.88;;;3.53;;
21206;SDS011;10761;48.532;8.026;2023-06-05T12:31:53;7.03;;;3.75;;
21206;SDS011;10761;48.532;8.026;2023-06-05T12:37:09;7.72;;;3.90;;
21206;SDS011;10761;48.532;8.026;2023-06-05T12:39:35;9.25;;;4.28;;
21206;SDS011;10761;48.532;8.026;2023-06-05T12:42:01;4.75;;;3.83;;
21206;SDS011;10761;48.532;8.026;2023-06-05T12:44:27;6.88;;;3.63;;
21206;SDS011;10761;48.532;8.026;2023-06-05T12:46:53;5.22;;;4.00;;
21206;SDS011;10761;48.532;8.026;2023-06-05T12:49:18;6.13;;;3.85;;
21206;SDS011;10761;48.532;8.026;2023-06-05T12:51:44;10.68;;;3.85;;
21206;SDS011;10761;48.532;8.026;2023-06-05T12:54:09;4.18;;;3.72;;
21206;SDS011;10761;48.532;8.026;2023-06-05T12:56:35;6.15;;;3.90;;
21206;SDS011;10761;48.532;8.026;2023-06-05T12:59:01;5.68;;;3.92;;
21206;SDS011;10761;48.532;8.026;2023-06-05T13:01:27;13.10;;;3.80;;
21206;SDS011;10761;48.532;8.026;2023-06-05T13:03:54;7.13;;;3.80;;
21206;SDS011;10761;48.532;8.026;2023-06-05T13:06:20;7.97;;;3.50;;
21206;SDS011;10761;48.532;8.026;2023-06-05T13:08:46;11.90;;;3.75;;
21206;SDS011;10761;48.532;8.026;2023-06-05T13:11:12;6.93;;;3.60;;
21206;SDS011;10761;48.532;8.026;2023-06-05T13:13:38;5.53;;;3.70;;
21206;SDS011;10761;48.532;8.026;2023-06-05T13:16:04;5.85;;;3.85;;
21206;SDS011;10761;48.532;8.026;2023-06-05T13:18:32;7.78;;;4.10;;
21206;SDS011;10761;48.532;8.026;2023-06-05T13:20:58;9.80;;;3.90;;
21206;SDS011;10761;48.532;8.026;2023-06-05T13:23:24;7.30;;;3.85;;
21206;SDS011;10761;48.532;8.026;2023-06-05T13:25:50;6.95;;;3.95;;
21206;SDS011;10761;48.532;8.026;2023-06-05T13:28:16;12.13;;;3.92;;
21206;SDS011;10761;48.532;8.026;2023-06-05T13:30:41;7.18;;;3.88;;
21206;SDS011;10761;48.532;8.026;2023-06-05T13:33:07;8.35;;;3.72;;
21206;SDS011;10761;48.532;8.026;2023-06-05T13:35:33;7.00;;;3.95;;
21206;SDS011;10761;48.532;8.026;2023-06-05T13:37:59;4.30;;;3.63;;
21206;SDS011;10761;48.532;8.026;2023-06-05T13:40:24;5.85;;;3.70;;
21206;SDS011;10761;48.532;8.026;2023-06-05T13:42:52;4.07;;;3.30;;
21206;SDS011;10761;48.532;8.026;2023-06-05T13:45:18;6.15;;;3.75;;
21206;SDS011;10761;48.532;8.026;2023-06-05T13:47:44;6.95;;;3.65;;
21206;SDS011;10761;48.532;8.026;2023-06-05T13:50:10;6.32;;;3.80;;
21206;SDS011;10761;48.532;8.026;2023-06-05T13:52:35;10.15;;;3.55;;
21206;SDS011;10761;48.532;8.026;2023-06-05T13:55:01;6.30;;;3.20;;
21206;SDS011;10761;48.532;8.026;2023-06-05T13:57:28;3.92;;;3.28;;
21206;SDS011;10761;48.532;8.026;2023-06-05T13:59:53;8.38;;;3.40;;
21206;SDS011;10761;48.532;8.026;2023-06-05T14:02:20;5.13;;;3.47;;
21206;SDS011;10761;48.532;8.026;2023-06-05T14:04:46;10.32;;;3.80;;
21206;SDS011;10761;48.532;8.026;2023-06-05T14:07:12;6.38;;;3.35;;
21206;SDS011;10761;48.532;8.026;2023-06-05T14:09:38;8.07;;;3.42;;
21206;SDS011;10761;48.532;8.026;2023-06-05T14:12:03;5.18;;;3.45;;
21206;SDS011;10761;48.532;8.026;2023-06-05T14:14:29;8.15;;;3.80;;
21206;SDS011;10761;48.532;8.026;2023-06-05T14:16:55;5.97;;;3.58;;
21206;SDS011;10761;48.532;8.026;2023-06-05T14:19:21;3.97;;;3.60;;
21206;SDS011;10761;48.532;8.026;2023-06-05T14:21:47;6.68;;;3.15;;
21206;SDS011;10761;48.532;8.026;2023-06-05T14:24:12;6.70;;;3.33;;
21206;SDS011;10761;48.532;8.026;2023-06-05T14:26:39;12.05;;;3.60;;
21206;SDS011;10761;48.532;8.026;2023-06-05T14:29:04;6.00;;;3.40;;
21206;SDS011;10761;48.532;8.026;2023-06-05T14:31:30;11.88;;;3.00;;
21206;SDS011;10761;48.532;8.026;2023-06-05T14:33:56;7.75;;;3.10;;
21206;SDS011;10761;48.532;8.026;2023-06-05T14:36:21;6.47;;;3.13;;
21206;SDS011;10761;48.532;8.026;2023-06-05T14:38:47;8.18;;;3.42;;
21206;SDS011;10761;48.532;8.026;2023-06-05T14:41:12;7.97;;;3.30;;
21206;SDS011;10761;48.532;8.026;2023-06-05T14:43:38;8.98;;;3.30;;
21206;SDS011;10761;48.532;8.026;2023-06-05T14:46:04;13.80;;;3.20;;
21206;SDS011;10761;48.532;8.026;2023-06-05T14:48:29;7.95;;;3.40;;
21206;SDS011;10761;48.532;8.026;2023-06-05T14:50:56;7.05;;;3.30;;
21206;SDS011;10761;48.532;8.026;2023-06-05T14:53:21;8.52;;;3.15;;
21206;SDS011;10761;48.532;8.026;2023-06-05T14:55:47;8.20;;;3.60;;
21206;SDS011;10761;48.532;8.026;2023-06-05T14:58:13;7.90;;;2.85;;
21206;SDS011;10761;48.532;8.026;2023-06-05T15:00:40;8.18;;;3.17;;
21206;SDS011;10761;48.532;8.026;2023-06-05T15:03:06;5.55;;;3.40;;
21206;SDS011;10761;48.532;8.026;2023-06-05T15:05:32;5.97;;;3.60;;
21206;SDS011;10761;48.532;8.026;2023-06-05T15:07:58;6.53;;;3.50;;
21206;SDS011;10761;48.532;8.026;2023-06-05T15:10:24;8.13;;;3.40;;
21206;SDS011;10761;48.532;8.026;2023-06-05T15:12:49;10.45;;;3.53;;
21206;SDS011;10761;48.532;8.026;2023-06-05T15:15:21;5.82;;;3.50;;
21206;SDS011;10761;48.532;8.026;2023-06-05T15:17:47;5.53;;;3.28;;
21206;SDS011;10761;48.532;8.026;2023-06-05T15:20:13;9.55;;;3.53;;
21206;SDS011;10761;48.532;8.026;2023-06-05T15:22:39;4.53;;;3.28;;
21206;SDS011;10761;48.532;8.026;2023-06-05T15:25:05;8.05;;;3.40;;
21206;SDS011;10761;48.532;8.026;2023-06-05T15:27:31;5.18;;;3.20;;
21206;SDS011;10761;48.532;8.026;2023-06-05T15:29:57;5.88;;;3.58;;
21206;SDS011;10761;48.532;8.026;2023-06-05T15:32:22;6.63;;;3.63;;